Bangkok/Suvarnabhumi International Airport

Airport
ICAO code: 
VTBS
IATA Code: 
BKK
Summary
ICAO Region: 
APAC
Territory: 
Location: 
Bang Phli, Samut Prakan,
Serving: 
Bangkok
Elevation: 
5 ft
Coordinates: 
Aerial View: 
13° 41' 32.273" N, 100° 45' 2.509" E
Airport LOS: 
Parallel Runway Operation
Airport WX: 
Cumulonimbus
Metar
Observation
VTBS 262300Z 35002KT 8000 SCT017 26/23 Q1010 NOSIG
Station
Chon Buri
Date/Time
2022-01-26 23:00:00
Wind direction
350°
Wind speed
02 kts
Lowest cloud amount
scattered clouds
Temperature
26°C
Dew point
23°C
Humidity
83%
QNH
1010 hPa
Weather condition
n/a

Description

International airport serving the city of Bangkok.

Climatology

Tropical Savanna climate (Köppen climate classification Aw)

Runways

Designator Length Width Surface Rops
01L/19R 3700 60 ASP Yes/Yes
01R/19L 4000 60 ASP Yes/Yes
Airport map: 
Aerial View: 

SKYbrary Partners:

Safety knowledge contributed by: